LFOH/LEH METAR and TAF weather

Enter ICAO airport designator
Station Type Date Time Source
LFOH METAR 2019/10/23 12:30 UTC NOAA

LFOH 231230Z AUTO 11005KT 070V150 9999 OVC013 15/12 Q1010 NOSIG


Station Type Date Time Source
LFOH Decoded METAR 2019/10/23 12:30 UTC NOAA

La Heve, France (LFOH) 49-31N 000-04E 103M
Oct 23, 2019 - 08:30 AM EDT / 2019.10.23 1230 UTC
Wind: from the ESE (110 degrees) at 6 MPH (5 KT) (direction variable):0
Visibility: greater than 7 mile(s):0
Sky conditions: overcast
Temperature: 59 F (15 C)
Dew Point: 53 F (12 C)
Relative Humidity: 82%
Pressure (altimeter): 29.83 in. Hg (1010 hPa)
ob: LFOH 231230Z AUTO 11005KT 070V150 9999 OVC013 15/12 Q1010 NOSIG
cycle: 12

Station Type Date Time Source
LFOH TAF 2019/10/23 12:56 UTC NOAA

TAF LFOH 231100Z 2312/2412 10007KT 9999 SCT014 BKN100
TEMPO 2312/2320 BKN012
BECMG 2320/2323 3000 BR
BECMG 2401/2404 6000 NSW OVC008
TEMPO 2406/2411 3000 RA OVC003 PROB40 2408/2410 OVC003 BKN030TCU
BECMG 2410/2412 24015KT

Example: see airport list